Airfield :
LOGIN :

Register | Disclaimer

   EN    FR    IT 

 










Legend :    VFR   Marginal VFR   IFR   Intensive IFR   Very Intensive IFR
Visi :
Ceiling :
>= 8 km
>= 3000ft
5 to 8 km
1000 to 3000 ft
1500m to 5 km
500 to 1000 ft
800 to 1500m
200 to 500 ft
< 800m
< 200 ft
Symbols :   Thunderstorms  Fog  Heavy snow  Heavy precipitations  Wind > 20 kt
SIGMETs :     Misc.  Thunderstorms  Icing  Turbulence  Mountain Waves  Volcanic Ashes







- Airport Elevation : 778 ft
- IATA code : BRQ


LKTB - Brno-Turany

CURRENT METAR :
  • 200330Z 29012KT CAVOK 03/00 Q1013 NOSIG

EXPIRED METARs :
  • 200300Z 29013KT 9999 SCT035 03/01 Q1013 RERA NOSIG
  • 200230Z 30022KT 6000 RA FEW014 OVC017 03/01 Q1012 NOSIG
  • 200215Z 28014G24KT 240V300 9999 RA BKN020 03/01 Q1012 RMK REG QNH 1007
  • 200200Z 28013KT 9999 -RA BKN020 03/01 Q1012 NOSIG
  • 200130Z 27014KT 9999 -RA BKN019 04/01 Q1012 NOSIG
  • 200100Z 27013KT 9999 -RA FEW027 BKN033 04/01 Q1012 NOSIG

TAF TAF LKTB
Valid from the 20 at 00:00 until the 21 at 06:00 UTC


192300Z 2000/2106 27010KT 9999 BKN025
TEMPO 2000/2100 28012G24KT 4000 RASN BKN015
BECMG 2100/2102 4000 RASN BKN012
TEMPO 2102/2106 2000 SN BKN008
PROB30
TEMPO 2102/2106 1200 SN BR BKN004
No reported NOTAMs for that airfield.



MET'MAP, your aeronautical weather chart ! - Copyright ORBIFLY December 2007 - Disclaimer

ORBIFLY MET'MAP TEAM :

Programming & Development : Alexandra Zaïnal
Concept & Development : Baudouin d'Aumeries
Co-Development & Prog : Marc-Olivier Méhu
Technical & hardware support : Manuel Goepfert

Contact : metmap@orbifly.com




SOURCES & CREDITS :

   NOAA